createdAt,value
2019-03-25T00:02:01.379Z,9.32
2019-03-25T00:04:30.967Z,9.26
2019-03-25T00:07:00.459Z,9.26
2019-03-25T00:13:09.423Z,9.16
2019-03-25T00:15:38.831Z,9.09
2019-03-25T00:18:08.414Z,9.06
2019-03-25T00:20:37.751Z,9.13
2019-03-25T00:23:07.089Z,8.99
2019-03-25T00:25:36.559Z,9.05
2019-03-25T00:28:05.890Z,9.04
2019-03-25T00:30:35.234Z,9.03
2019-03-25T00:33:04.570Z,9.07
2019-03-25T00:35:34.195Z,9.10
2019-03-25T00:38:03.798Z,9.01
2019-03-25T00:40:33.141Z,8.96
2019-03-25T00:43:02.487Z,8.89
2019-03-25T00:45:31.822Z,8.93
2019-03-25T00:48:01.514Z,8.80
2019-03-25T00:50:30.845Z,8.74
2019-03-25T00:53:00.233Z,8.92
2019-03-25T00:55:29.523Z,8.88
2019-03-25T00:57:58.870Z,8.82
2019-03-25T01:00:28.261Z,8.68
2019-03-25T01:02:57.649Z,8.70
2019-03-25T01:05:27.338Z,8.57
2019-03-25T01:07:56.938Z,8.55
2019-03-25T01:10:37.327Z,8.65
2019-03-25T01:13:07.011Z,8.66
2019-03-25T01:15:36.354Z,8.69
2019-03-25T01:18:16.356Z,8.60
2019-03-25T01:20:56.167Z,8.70
2019-03-25T01:23:25.511Z,8.68
2019-03-25T01:26:01.062Z,8.68
2019-03-25T01:28:30.682Z,8.64
2019-03-25T01:31:00.029Z,8.43
2019-03-25T01:33:29.677Z,8.46
2019-03-25T01:35:59.022Z,8.37
2019-03-25T01:38:28.372Z,8.40
2019-03-25T01:40:57.986Z,8.38
2019-03-25T01:43:27.595Z,8.28
2019-03-25T01:45:57.203Z,8.37
2019-03-25T01:48:26.559Z,8.43
2019-03-25T01:50:56.214Z,8.38
2019-03-25T01:53:25.547Z,8.42
2019-03-25T01:55:55.222Z,8.30
2019-03-25T01:58:24.805Z,8.23
2019-03-25T02:00:54.220Z,8.20
2019-03-25T02:03:43.194Z,8.32
2019-03-25T02:06:12.798Z,8.40
2019-03-25T02:08:42.410Z,8.49
2019-03-25T02:11:11.764Z,8.41
2019-03-25T02:13:41.420Z,8.42
2019-03-25T02:16:10.759Z,8.21
2019-03-25T02:18:40.430Z,8.36
2019-03-25T02:24:12.528Z,8.33
2019-03-25T02:26:47.627Z,8.27
2019-03-25T02:29:16.979Z,8.27
2019-03-25T02:31:46.337Z,8.29
2019-03-25T02:34:17.307Z,8.24
2019-03-25T02:36:46.696Z,8.16
2019-03-25T02:39:16.303Z,8.24
2019-03-25T02:41:45.652Z,8.14
2019-03-25T02:44:15.316Z,8.02
2019-03-25T02:46:44.740Z,8.01
2019-03-25T02:49:14.120Z,8.00
2019-03-25T02:51:43.475Z,7.90
2019-03-25T02:54:13.144Z,7.72
2019-03-25T02:56:42.549Z,7.74
2019-03-25T02:59:11.893Z,7.55
2019-03-25T03:01:41.225Z,7.46
2019-03-25T03:04:10.847Z,7.51
2019-03-25T03:06:40.179Z,7.44
2019-03-25T03:12:11.333Z,7.39
2019-03-25T03:14:40.634Z,7.36
2019-03-25T03:17:09.986Z,7.31
2019-03-25T03:19:39.562Z,7.24
2019-03-25T03:22:09.146Z,7.17
2019-03-25T03:24:38.486Z,7.14
2019-03-25T03:27:07.822Z,7.20
2019-03-25T03:29:37.240Z,7.29
2019-03-25T03:32:06.717Z,7.24
2019-03-25T03:34:56.706Z,7.11
2019-03-25T03:37:26.051Z,7.18
2019-03-25T03:39:55.371Z,7.16
2019-03-25T03:45:26.893Z,7.30
2019-03-25T03:48:09.048Z,7.26
2019-03-25T03:53:40.278Z,7.25
2019-03-25T03:59:11.967Z,7.08
2019-03-25T04:01:41.552Z,7.17
2019-03-25T04:04:10.901Z,7.09
2019-03-25T04:06:59.327Z,7.03
2019-03-25T04:09:48.015Z,7.05
2019-03-25T04:12:17.360Z,6.98
2019-03-25T04:14:46.701Z,6.93
2019-03-25T04:17:16.094Z,6.84
2019-03-25T04:19:45.440Z,6.79
2019-03-25T04:22:15.068Z,6.74
2019-03-25T04:24:44.671Z,6.58
2019-03-25T04:27:14.039Z,6.56
2019-03-25T04:29:43.367Z,6.45
2019-03-25T04:32:24.641Z,6.30
2019-03-25T04:34:53.981Z,6.32
2019-03-25T04:37:23.667Z,6.31
2019-03-25T04:39:53.274Z,6.29
2019-03-25T04:42:22.883Z,6.25
2019-03-25T04:44:52.278Z,6.21
2019-03-25T04:47:21.621Z,6.12
2019-03-25T04:49:51.215Z,6.12
2019-03-25T04:52:20.546Z,6.12
2019-03-25T04:54:49.898Z,6.08
2019-03-25T04:57:19.494Z,6.07
2019-03-25T04:59:48.830Z,5.98
2019-03-25T05:02:18.190Z,5.99
2019-03-25T05:04:47.818Z,5.98
2019-03-25T05:07:17.421Z,5.89
2019-03-25T05:09:46.997Z,5.96
2019-03-25T05:12:16.635Z,5.86
2019-03-25T05:14:46.044Z,5.75
2019-03-25T05:17:15.387Z,5.74
2019-03-25T05:19:44.749Z,5.69
2019-03-25T05:22:14.094Z,5.67
2019-03-25T05:24:43.508Z,5.58
2019-03-25T05:27:12.898Z,5.57
2019-03-25T05:29:42.263Z,5.52
2019-03-25T05:32:11.606Z,5.48
2019-03-25T05:34:40.957Z,5.44
2019-03-25T05:37:29.406Z,5.45
2019-03-25T05:39:58.753Z,5.50
2019-03-25T05:42:28.428Z,5.52
2019-03-25T05:44:57.805Z,5.44
2019-03-25T05:47:27.395Z,5.49
2019-03-25T05:49:57.032Z,5.35
2019-03-25T05:52:26.386Z,5.44
2019-03-25T05:54:56.043Z,5.51
2019-03-25T05:57:25.386Z,5.65
2019-03-25T05:59:55.050Z,5.74
2019-03-25T06:02:24.391Z,5.73
2019-03-25T06:04:53.743Z,5.75
2019-03-25T06:07:23.087Z,5.84
2019-03-25T06:09:52.435Z,5.96
2019-03-25T06:12:21.845Z,6.04
2019-03-25T06:14:51.184Z,6.11
2019-03-25T06:17:20.543Z,6.10
2019-03-25T06:19:49.890Z,6.25
2019-03-25T06:22:19.237Z,6.21
2019-03-25T06:25:00.663Z,6.26
2019-03-25T06:27:30.257Z,6.20
2019-03-25T06:29:59.673Z,6.21
2019-03-25T06:32:29.271Z,6.29
2019-03-25T06:34:58.618Z,6.39
2019-03-25T06:37:28.202Z,6.37
2019-03-25T06:39:57.888Z,6.39
2019-03-25T06:42:27.235Z,6.54
2019-03-25T06:44:56.604Z,6.64
2019-03-25T06:47:26.298Z,6.76
2019-03-25T06:49:55.905Z,6.82
2019-03-25T06:52:25.515Z,6.88
2019-03-25T06:54:54.919Z,7.06
2019-03-25T06:57:25.880Z,7.20
2019-03-25T07:00:54.650Z,7.30
2019-03-25T07:03:23.983Z,7.39
2019-03-25T07:05:53.667Z,7.25
2019-03-25T07:08:23.269Z,7.32
2019-03-25T07:10:52.614Z,7.39
2019-03-25T07:16:23.953Z,7.70
2019-03-25T07:18:53.647Z,7.65
2019-03-25T07:21:22.999Z,7.60
2019-03-25T07:23:52.335Z,7.75
2019-03-25T07:26:21.684Z,7.95
2019-03-25T07:29:03.178Z,8.06
2019-03-25T07:31:32.639Z,8.02
2019-03-25T07:34:01.989Z,7.84
2019-03-25T07:36:31.655Z,7.78
2019-03-25T07:39:01.000Z,8.03
2019-03-25T07:41:30.346Z,7.98
2019-03-25T07:43:59.688Z,8.03
2019-03-25T07:46:29.369Z,8.12
2019-03-25T07:48:58.973Z,8.19
2019-03-25T07:51:28.324Z,8.31
2019-03-25T07:53:57.653Z,8.28
2019-03-25T07:56:27.288Z,8.19
2019-03-25T07:58:56.680Z,8.18
2019-03-25T08:01:26.001Z,8.10
2019-03-25T08:03:55.594Z,8.20
2019-03-25T08:06:24.965Z,8.41
2019-03-25T08:09:03.425Z,8.61
2019-03-25T08:11:31.051Z,8.40
2019-03-25T08:14:00.688Z,8.68
2019-03-25T08:16:30.105Z,8.67
2019-03-25T08:18:59.447Z,8.72
2019-03-25T08:21:40.112Z,8.68
2019-03-25T08:24:09.446Z,8.55
2019-03-25T08:26:44.632Z,8.67
2019-03-25T08:29:13.969Z,8.78
2019-03-25T08:31:43.333Z,8.98
2019-03-25T08:34:13.024Z,8.60
2019-03-25T08:36:42.627Z,8.70
2019-03-25T08:39:12.221Z,8.76
2019-03-25T08:41:41.563Z,8.93
2019-03-25T08:44:11.229Z,8.91
2019-03-25T08:46:40.838Z,8.89
2019-03-25T08:49:29.262Z,8.91
2019-03-25T08:51:58.898Z,8.89
2019-03-25T08:54:28.501Z,9.18
2019-03-25T08:56:57.846Z,9.17
2019-03-25T08:59:27.179Z,9.22
2019-03-25T09:01:56.511Z,9.06
2019-03-25T09:04:26.108Z,9.03
2019-03-25T09:07:16.714Z,8.91
2019-03-25T09:09:46.057Z,9.20
2019-03-25T09:12:15.387Z,9.12
2019-03-25T09:14:44.969Z,9.23
2019-03-25T09:17:14.299Z,9.36
2019-03-25T09:19:44.046Z,9.17
2019-03-25T09:22:13.443Z,8.84
2019-03-25T09:24:42.793Z,8.99
2019-03-25T09:27:12.278Z,9.16
2019-03-25T09:29:41.970Z,9.59
2019-03-25T09:32:17.292Z,9.96
2019-03-25T09:34:46.914Z,9.61
2019-03-25T09:37:16.557Z,9.81
2019-03-25T09:39:46.219Z,10.06
2019-03-25T09:42:15.550Z,10.33
2019-03-25T09:44:44.894Z,9.80
2019-03-25T09:47:14.226Z,9.14
2019-03-25T09:49:43.574Z,9.08
2019-03-25T09:52:13.070Z,8.67
2019-03-25T09:54:42.398Z,8.85
2019-03-25T09:57:11.985Z,8.81
2019-03-25T09:59:41.560Z,8.88
2019-03-25T10:02:11.252Z,8.66
2019-03-25T10:04:40.598Z,8.67
2019-03-25T10:10:12.115Z,8.52
2019-03-25T10:12:41.684Z,8.59
2019-03-25T10:15:21.845Z,8.92
2019-03-25T10:17:51.179Z,8.71
2019-03-25T10:20:20.516Z,9.06
2019-03-25T10:22:49.864Z,9.08
2019-03-25T10:25:19.337Z,8.96
2019-03-25T10:28:08.029Z,9.08
2019-03-25T10:30:37.367Z,8.97
2019-03-25T10:33:06.892Z,8.95
2019-03-25T10:35:36.242Z,9.34
2019-03-25T10:38:05.883Z,9.21
2019-03-25T10:40:35.240Z,9.17
2019-03-25T10:43:04.580Z,9.31
2019-03-25T10:45:34.287Z,9.17
2019-03-25T10:48:03.754Z,9.04
2019-03-25T10:50:33.103Z,9.01
2019-03-25T10:53:02.428Z,9.28
2019-03-25T10:55:32.013Z,9.35
2019-03-25T10:58:01.586Z,9.07
2019-03-25T11:00:31.006Z,9.16
2019-03-25T11:03:00.614Z,9.22
2019-03-25T11:05:29.955Z,9.52
2019-03-25T11:07:59.375Z,9.33
2019-03-25T11:10:29.027Z,9.51
2019-03-25T11:12:58.390Z,9.99
2019-03-25T11:15:28.034Z,10.79
2019-03-25T11:17:57.646Z,10.74
2019-03-25T11:20:27.001Z,10.44
2019-03-25T11:22:56.758Z,10.33
2019-03-25T11:25:26.388Z,9.96
2019-03-25T11:27:55.793Z,9.50
2019-03-25T11:31:03.724Z,8.60
2019-03-25T11:34:13.103Z,8.04
2019-03-25T11:36:42.431Z,8.29
2019-03-25T11:39:11.844Z,8.69
2019-03-25T11:41:41.368Z,9.25
2019-03-25T11:44:10.711Z,8.91
2019-03-25T11:46:40.346Z,9.14
2019-03-25T11:49:09.698Z,8.97
2019-03-25T11:51:39.039Z,8.69
2019-03-25T11:54:08.378Z,8.90
2019-03-25T11:56:38.051Z,9.05
2019-03-25T11:59:07.663Z,8.61
2019-03-25T12:01:38.903Z,8.47
2019-03-25T12:04:10.521Z,8.35
2019-03-25T12:06:45.079Z,8.89
2019-03-25T12:09:16.321Z,9.14
2019-03-25T12:11:47.304Z,9.81
2019-03-25T12:14:16.973Z,10.17
2019-03-25T12:16:48.219Z,9.90
2019-03-25T12:19:17.554Z,9.10
2019-03-25T12:21:47.232Z,8.50
2019-03-25T12:24:18.216Z,8.13
2019-03-25T12:26:49.529Z,7.59
2019-03-25T12:29:29.248Z,7.19
2019-03-25T12:32:21.021Z,7.18
2019-03-25T12:34:50.475Z,7.65
2019-03-25T12:37:19.803Z,8.03
2019-03-25T12:39:50.792Z,8.36
2019-03-25T12:42:20.449Z,8.37
2019-03-25T12:44:49.803Z,8.71
2019-03-25T12:47:19.126Z,8.69
2019-03-25T12:49:50.394Z,8.78
2019-03-25T12:52:20.038Z,8.85
2019-03-25T12:54:49.378Z,7.51
2019-03-25T12:57:31.441Z,6.59
2019-03-25T13:00:01.104Z,5.62
2019-03-25T13:02:32.355Z,5.81
2019-03-25T13:05:01.702Z,5.94
2019-03-25T13:07:31.045Z,6.01
2019-03-25T13:10:00.681Z,6.27
2019-03-25T13:12:30.017Z,6.54
2019-03-25T13:14:59.372Z,6.53
2019-03-25T13:17:28.726Z,6.86
2019-03-25T13:19:58.075Z,6.89
2019-03-25T13:22:27.489Z,7.06
2019-03-25T13:24:56.899Z,7.35
2019-03-25T13:27:26.242Z,7.52
2019-03-25T13:29:55.601Z,7.54
2019-03-25T13:32:24.928Z,7.88
2019-03-25T13:34:54.276Z,7.80
2019-03-25T13:37:23.617Z,8.04
2019-03-25T13:39:52.956Z,8.19
2019-03-25T13:42:22.593Z,8.23
2019-03-25T13:45:11.140Z,8.31
2019-03-25T13:47:40.489Z,8.65
2019-03-25T13:53:33.008Z,9.27
2019-03-25T13:59:04.228Z,9.68
2019-03-25T14:01:39.872Z,9.53
2019-03-25T14:04:09.234Z,9.33
2019-03-25T14:06:38.540Z,9.12
2019-03-25T14:12:09.589Z,8.83
2019-03-25T14:14:38.930Z,7.64
2019-03-25T14:17:08.599Z,6.34
2019-03-25T14:19:37.952Z,6.01
2019-03-25T14:22:07.608Z,5.33
2019-03-25T14:24:37.217Z,5.12
2019-03-25T14:27:06.822Z,4.88
2019-03-25T14:29:36.180Z,5.10
2019-03-25T14:32:05.513Z,5.20
2019-03-25T14:34:44.455Z,5.42
2019-03-25T14:37:11.400Z,5.47
2019-03-25T14:39:40.753Z,5.61
2019-03-25T14:42:10.106Z,5.80
2019-03-25T14:44:41.077Z,5.88
2019-03-25T14:47:10.433Z,6.15
2019-03-25T14:49:39.773Z,6.47
2019-03-25T14:52:09.113Z,6.38
2019-03-25T14:54:40.160Z,6.71
2019-03-25T14:57:41.027Z,6.77
2019-03-25T15:03:24.923Z,7.28
2019-03-25T15:05:54.610Z,7.81
2019-03-25T15:08:24.207Z,7.84
2019-03-25T15:10:53.998Z,7.94
2019-03-25T15:13:43.913Z,7.86
2019-03-25T15:16:13.305Z,7.75
2019-03-25T15:18:42.910Z,7.73
2019-03-25T15:21:12.520Z,7.51
2019-03-25T15:23:41.847Z,7.70
2019-03-25T15:26:11.527Z,7.71
2019-03-25T15:28:41.135Z,7.89
2019-03-25T15:31:10.742Z,8.15
2019-03-25T15:33:40.080Z,8.00
2019-03-25T15:36:09.492Z,8.08
2019-03-25T15:38:38.812Z,8.01
2019-03-25T15:41:13.792Z,7.99
2019-03-25T15:43:43.113Z,7.95
2019-03-25T15:46:12.451Z,7.80
2019-03-25T15:48:41.779Z,7.89
2019-03-25T15:51:11.105Z,7.89
2019-03-25T15:53:40.449Z,8.01
2019-03-25T15:56:10.103Z,7.89
2019-03-25T15:58:39.708Z,7.97
2019-03-25T16:01:09.420Z,7.83
2019-03-25T16:03:38.746Z,7.93
2019-03-25T16:06:08.126Z,8.11
2019-03-25T16:08:37.724Z,8.45
2019-03-25T16:11:07.439Z,8.37
2019-03-25T16:13:36.778Z,8.29
2019-03-25T16:16:06.106Z,8.19
2019-03-25T16:18:54.793Z,8.30
2019-03-25T16:21:24.415Z,8.47
2019-03-25T16:23:54.011Z,8.64
2019-03-25T16:26:23.350Z,8.77
2019-03-25T16:28:52.675Z,8.84
2019-03-25T16:31:22.316Z,8.70
2019-03-25T16:33:51.644Z,8.95
2019-03-25T16:36:21.027Z,8.54
2019-03-25T16:38:50.368Z,7.85
2019-03-25T16:41:19.730Z,7.25
2019-03-25T16:43:49.067Z,6.87
2019-03-25T16:49:32.895Z,6.77
2019-03-25T16:52:16.673Z,6.01
2019-03-25T16:54:46.035Z,6.33
2019-03-25T16:57:15.636Z,6.25
2019-03-25T16:59:44.966Z,6.32
2019-03-25T17:02:16.287Z,6.37
2019-03-25T17:04:45.892Z,6.29
2019-03-25T17:07:15.500Z,6.05
2019-03-25T17:09:44.851Z,5.98
2019-03-25T17:12:14.178Z,5.95
2019-03-25T17:14:43.525Z,6.01
2019-03-25T17:17:12.856Z,5.94
2019-03-25T17:19:42.260Z,6.04
2019-03-25T17:22:11.933Z,5.87
2019-03-25T17:24:41.279Z,5.84
2019-03-25T17:27:29.956Z,5.91
2019-03-25T17:29:59.388Z,5.83
2019-03-25T17:32:28.980Z,5.88
2019-03-25T17:35:00.369Z,5.92
2019-03-25T17:37:29.644Z,5.84
2019-03-25T17:40:00.613Z,5.72
2019-03-25T17:42:31.721Z,5.68
2019-03-25T17:45:01.057Z,5.70
2019-03-25T17:47:30.724Z,5.64
2019-03-25T17:50:00.171Z,5.62
2019-03-25T17:52:36.774Z,5.53
2019-03-25T17:55:46.260Z,5.58
2019-03-25T17:58:15.864Z,5.56
2019-03-25T18:04:00.838Z,5.59
2019-03-25T18:06:30.210Z,5.52
2019-03-25T18:08:59.848Z,5.53
2019-03-25T18:11:30.862Z,5.51
2019-03-25T18:14:00.495Z,5.71
2019-03-25T18:16:29.834Z,5.74
2019-03-25T18:19:18.567Z,5.82
2019-03-25T18:21:48.174Z,5.77
2019-03-25T18:24:17.530Z,5.84
2019-03-25T18:26:46.888Z,5.87
2019-03-25T18:29:17.189Z,5.90
2019-03-25T18:31:57.276Z,5.91
2019-03-25T18:34:26.689Z,5.98
2019-03-25T18:36:56.037Z,5.94
2019-03-25T18:39:25.381Z,6.01
2019-03-25T18:41:56.137Z,5.95
2019-03-25T18:44:31.833Z,6.00
2019-03-25T18:47:01.205Z,6.05
2019-03-25T18:49:30.543Z,6.12
2019-03-25T18:51:59.877Z,6.05
2019-03-25T18:54:29.544Z,6.03
2019-03-25T18:56:59.494Z,5.97
2019-03-25T18:59:29.190Z,5.89
2019-03-25T19:01:58.782Z,6.07
2019-03-25T19:04:28.123Z,6.10
2019-03-25T19:07:08.961Z,6.01
2019-03-25T19:09:38.302Z,5.98
2019-03-25T19:12:20.548Z,6.01
2019-03-25T19:14:50.098Z,6.07
2019-03-25T19:17:19.692Z,6.00
2019-03-25T19:19:48.997Z,6.13
2019-03-25T19:22:18.383Z,6.26
2019-03-25T19:24:47.779Z,6.26
2019-03-25T19:27:29.609Z,6.28
2019-03-25T19:29:58.933Z,6.32
2019-03-25T19:32:28.270Z,6.31
2019-03-25T19:35:09.411Z,6.27
2019-03-25T19:37:38.793Z,6.38
2019-03-25T19:43:10.436Z,6.33
2019-03-25T19:45:40.100Z,6.31
2019-03-25T19:48:15.608Z,6.33
2019-03-25T19:50:44.965Z,6.18
2019-03-25T19:53:19.157Z,6.20
2019-03-25T19:55:51.114Z,6.12
2019-03-25T19:58:20.493Z,6.01
2019-03-25T20:00:49.877Z,6.06
2019-03-25T20:03:19.567Z,6.03
2019-03-25T20:05:49.013Z,5.99
2019-03-25T20:08:18.383Z,5.97
2019-03-25T20:10:48.001Z,5.97
2019-03-25T20:13:17.704Z,5.91
2019-03-25T20:15:47.309Z,5.54
2019-03-25T20:18:16.657Z,5.59
2019-03-25T20:20:46.141Z,5.42
2019-03-25T20:23:15.501Z,5.31
2019-03-25T20:26:10.075Z,5.26
2019-03-25T20:28:39.739Z,5.26
2019-03-25T20:31:09.366Z,5.07
2019-03-25T20:33:39.033Z,5.11
2019-03-25T20:36:08.388Z,5.13
2019-03-25T20:38:49.360Z,5.07
2019-03-25T20:41:20.931Z,5.06
2019-03-25T20:43:57.645Z,5.11
2019-03-25T20:46:27.484Z,5.04
2019-03-25T20:49:03.523Z,5.07
2019-03-25T20:51:33.545Z,4.98
2019-03-25T20:54:03.579Z,4.95
2019-03-25T20:56:33.378Z,4.95
2019-03-25T21:02:04.235Z,4.94
2019-03-25T21:04:33.848Z,4.96
2019-03-25T21:07:03.442Z,4.90
2019-03-25T21:09:38.932Z,4.94
2019-03-25T21:12:14.765Z,4.89
2019-03-25T21:14:44.439Z,4.92
2019-03-25T21:17:14.536Z,4.79
2019-03-25T21:19:44.216Z,4.81
2019-03-25T21:22:14.037Z,4.79
2019-03-25T21:24:44.153Z,4.83
2019-03-25T21:27:13.753Z,4.83
2019-03-25T21:29:43.233Z,4.82
2019-03-25T21:32:12.751Z,4.69
2019-03-25T21:34:42.458Z,4.63
2019-03-25T21:37:12.479Z,4.59
2019-03-25T21:39:42.522Z,4.84
2019-03-25T21:42:12.046Z,4.50
2019-03-25T21:44:41.685Z,4.62
2019-03-25T21:47:11.225Z,4.59
2019-03-25T21:49:41.233Z,4.61
2019-03-25T21:52:11.070Z,4.70
2019-03-25T21:54:40.908Z,4.71
2019-03-25T21:57:10.959Z,4.68
2019-03-25T21:59:41.143Z,4.50
2019-03-25T22:02:11.012Z,4.59
2019-03-25T22:04:40.730Z,4.56
2019-03-25T22:07:10.445Z,4.74
2019-03-25T22:09:39.837Z,4.66
2019-03-25T22:12:09.331Z,4.60
2019-03-25T22:14:39.693Z,4.57
2019-03-25T22:23:12.235Z,4.66
2019-03-25T22:25:41.812Z,4.62
2019-03-25T22:28:11.701Z,4.66
2019-03-25T22:30:41.145Z,4.50
2019-03-25T22:33:10.783Z,4.57
2019-03-25T22:35:40.333Z,4.60
2019-03-25T22:38:09.727Z,4.59
2019-03-25T22:40:39.322Z,4.58
2019-03-25T22:43:08.859Z,4.50
2019-03-25T22:45:44.341Z,4.52
2019-03-25T22:48:13.946Z,4.59
2019-03-25T22:50:49.574Z,4.60
2019-03-25T22:53:19.077Z,4.56
2019-03-25T22:56:08.259Z,4.51
2019-03-25T22:58:56.872Z,4.58
2019-03-25T23:05:00.616Z,4.61
2019-03-25T23:07:30.402Z,4.64
2019-03-25T23:09:59.808Z,4.49
2019-03-25T23:12:29.430Z,4.57
2019-03-25T23:14:59.020Z,4.60
2019-03-25T23:17:34.268Z,4.58
2019-03-25T23:23:18.750Z,4.72
2019-03-25T23:25:48.593Z,4.70
2019-03-25T23:28:18.621Z,4.64
2019-03-25T23:30:48.312Z,4.55
2019-03-25T23:33:17.701Z,4.59
2019-03-25T23:35:47.080Z,4.61
2019-03-25T23:38:16.978Z,4.77
2019-03-25T23:40:46.640Z,4.68
2019-03-25T23:43:16.236Z,4.56
2019-03-25T23:45:46.239Z,4.64
2019-03-25T23:48:16.064Z,4.69
2019-03-25T23:51:04.804Z,4.80
2019-03-25T23:53:34.814Z,4.74
2019-03-25T23:56:04.346Z,4.86
2019-03-25T23:58:33.914Z,4.90
